Time;durP1;ratioP1;P1;durP2;ratioP2;P2;SDS_P1;SDS_P2;PMS_P1;PMS_P2;Temp;Humidity;BMP_temperature;BMP_pressure;BME280_temperature;BME280_humidity;BME280_pressure;Samples;Min_cycle;Max_cycle;Signal;HPM_P1;HPM_P2
2022/05/10 04:06:54;;;;;;;8.45;7.60;;;11.30;99.90;;;;;;5020136;28;20309;-62
2022/05/10 04:09:20;;;;;;;8.60;7.77;;;11.40;99.90;;;;;;5033493;28;20202;-62
2022/05/10 04:11:46;;;;;;;8.63;7.77;;;11.40;99.90;;;;;;5033737;28;20170;-62
2022/05/10 04:14:11;;;;;;;9.27;8.30;;;11.40;99.90;;;;;;5031518;28;20731;-62
2022/05/10 04:16:37;;;;;;;9.23;8.43;;;11.40;99.90;;;;;;5033762;28;20178;-63
2022/05/10 04:19:03;;;;;;;8.27;7.43;;;11.40;99.90;;;;;;5033037;28;20178;-62
2022/05/10 04:21:29;;;;;;;8.93;7.10;;;11.40;99.90;;;;;;5033319;28;20601;-63
2022/05/10 04:23:55;;;;;;;8.40;7.60;;;11.50;99.90;;;;;;5032954;28;20193;-63
2022/05/10 04:26:20;;;;;;;11.17;8.70;;;11.50;99.90;;;;;;5033466;28;20199;-63
2022/05/10 04:28:46;;;;;;;10.60;9.50;;;11.60;99.90;;;;;;5021383;28;20919;-63
2022/05/10 04:31:12;;;;;;;13.20;9.07;;;11.70;99.90;;;;;;5013657;28;20174;-63
2022/05/10 04:33:39;;;;;;;9.52;7.97;;;11.80;99.90;;;;;;5012030;28;20431;-62
2022/05/10 04:36:05;;;;;;;9.87;8.87;;;12.00;99.90;;;;;;5013322;28;20515;-63
2022/05/10 04:38:31;;;;;;;9.83;8.90;;;12.20;99.90;;;;;;5015501;28;20758;-62
2022/05/10 04:43:42;;;;;;;9.83;8.80;;;12.60;99.90;;;;;;5033312;28;20199;-64
2022/05/10 04:46:07;;;;;;;7.30;6.60;;;13.00;99.90;;;;;;5033267;28;20467;-64
2022/05/10 04:48:33;;;;;;;7.57;6.70;;;13.20;99.90;;;;;;5033348;28;20173;-64
2022/05/10 04:51:00;;;;;;;9.03;8.00;;;13.50;99.90;;;;;;5028466;28;20240;-63
2022/05/10 04:53:26;;;;;;;7.70;7.00;;;13.80;99.90;;;;;;5012917;28;20499;-63
2022/05/10 04:55:52;;;;;;;8.10;7.40;;;14.10;99.90;;;;;;5013879;28;20467;-64
2022/05/10 04:58:17;;;;;;;7.83;7.13;;;14.30;99.90;;;;;;5013558;28;20398;-64
2022/05/10 05:00:44;;;;;;;8.20;5.83;;;14.50;99.90;;;;;;5013534;28;20407;-64
2022/05/10 05:03:10;;;;;;;7.07;6.47;;;14.60;99.90;;;;;;5012971;28;20252;-64
2022/05/10 05:05:36;;;;;;;6.77;6.20;;;14.90;99.90;;;;;;5025142;28;20459;-64
2022/05/10 05:08:01;;;;;;;6.47;5.87;;;14.90;99.90;;;;;;5048710;28;20170;-64
2022/05/10 05:10:28;;;;;;;8.10;7.30;;;15.00;99.90;;;;;;5029556;28;20433;-63
2022/05/10 05:12:53;;;;;;;9.67;7.87;;;15.00;99.90;;;;;;5012807;28;20190;-63
2022/05/10 05:15:19;;;;;;;7.33;6.57;;;15.00;99.90;;;;;;5048692;28;20763;-61
2022/05/10 05:17:45;;;;;;;8.50;7.70;;;15.00;99.90;;;;;;5035085;28;20204;-63
2022/05/10 05:20:11;;;;;;;7.63;6.67;;;15.00;99.90;;;;;;5052680;28;20169;-61
2022/05/10 05:22:37;;;;;;;7.73;6.97;;;15.10;99.90;;;;;;5052316;28;20169;-61
2022/05/10 05:25:05;;;;;;;8.00;7.23;;;15.20;99.90;;;;;;5052530;28;20554;-61
2022/05/10 05:27:31;;;;;;;9.13;8.20;;;15.30;99.90;;;;;;5052634;28;20631;-62
2022/05/10 05:29:57;;;;;;;10.20;7.27;;;15.40;99.90;;;;;;5052694;28;20408;-63
2022/05/10 05:32:28;;;;;;;7.80;7.00;;;15.50;99.90;;;;;;5055447;28;20805;-65
2022/05/10 05:34:54;;;;;;;6.73;6.17;;;15.70;99.90;;;;;;5056323;28;20555;-63
2022/05/10 05:37:37;;;;;;;8.47;7.63;;;15.90;99.90;;;;;;5056403;28;20425;-63
2022/05/10 05:40:11;;;;;;;6.83;6.23;;;16.00;99.90;;;;;;5022863;28;20403;-64
2022/05/10 05:42:37;;;;;;;10.93;7.87;;;16.10;99.90;;;;;;5039026;28;20506;-64
2022/05/10 05:45:08;;;;;;;7.23;6.63;;;16.20;99.90;;;;;;5038107;28;20459;-61
2022/05/10 05:47:34;;;;;;;8.20;7.40;;;16.20;99.90;;;;;;5042772;28;20390;-63
2022/05/10 05:49:59;;;;;;;7.43;6.73;;;16.20;99.90;;;;;;5036199;28;20745;-62
2022/05/10 05:52:25;;;;;;;8.00;7.20;;;16.20;99.90;;;;;;5036197;28;20424;-62
2022/05/10 05:54:53;;;;;;;8.60;7.80;;;16.40;99.90;;;;;;5035972;28;20189;-62
2022/05/10 05:57:19;;;;;;;8.23;7.47;;;16.60;99.90;;;;;;5036046;28;20401;-63
2022/05/10 05:59:46;;;;;;;8.17;7.30;;;16.60;99.90;;;;;;5049215;28;20409;-64
2022/05/10 06:02:13;;;;;;;7.50;6.90;;;16.70;99.90;;;;;;5055605;28;20425;-63
2022/05/10 06:04:39;;;;;;;8.13;6.90;;;16.80;99.90;;;;;;5054667;28;20521;-64
2022/05/10 06:07:05;;;;;;;9.20;8.40;;;16.90;99.90;;;;;;5035525;28;20480;-64
2022/05/10 06:09:31;;;;;;;7.73;7.13;;;17.00;99.90;;;;;;5035794;28;20168;-64
2022/05/10 06:11:56;;;;;;;7.57;6.80;;;17.10;99.90;;;;;;5035775;28;20891;-63
2022/05/10 06:14:22;;;;;;;7.37;6.67;;;17.20;99.90;;;;;;5035305;28;20192;-64
2022/05/10 06:16:48;;;;;;;7.73;7.03;;;17.20;99.90;;;;;;5035450;28;20664;-63
2022/05/10 06:19:14;;;;;;;7.23;6.63;;;17.20;99.90;;;;;;5035509;28;20505;-64
2022/05/10 06:21:41;;;;;;;8.67;7.53;;;17.30;99.90;;;;;;5035443;28;20172;-64
2022/05/10 06:24:08;;;;;;;7.67;7.07;;;17.40;99.90;;;;;;5017278;28;20403;-64
2022/05/10 06:26:33;;;;;;;8.27;7.50;;;17.50;99.90;;;;;;5017563;28;20498;-65
2022/05/10 06:28:59;;;;;;;8.97;7.23;;;17.70;99.90;;;;;;5035340;28;20455;-65
2022/05/10 06:31:24;;;;;;;8.70;7.87;;;17.90;99.90;;;;;;5035462;28;20538;-61
2022/05/10 06:33:50;;;;;;;9.13;7.17;;;18.00;99.90;;;;;;5034985;28;20265;-64
2022/05/10 06:36:16;;;;;;;8.27;7.50;;;18.10;99.90;;;;;;5035230;28;20186;-64
2022/05/10 06:38:41;;;;;;;7.40;6.70;;;18.20;99.90;;;;;;5035363;28;20699;-63
2022/05/10 06:41:07;;;;;;;7.90;7.13;;;18.30;99.90;;;;;;5035483;28;20174;-62
2022/05/10 06:43:36;;;;;;;7.37;6.77;;;18.50;99.90;;;;;;5033751;28;20194;-63
2022/05/10 06:46:13;;;;;;;8.73;7.83;;;18.60;99.90;;;;;;5034891;28;20198;-64
2022/05/10 06:48:39;;;;;;;7.70;7.10;;;18.80;99.90;;;;;;5033728;28;20403;-64
2022/05/10 06:51:07;;;;;;;6.20;5.70;;;19.00;99.90;;;;;;5034990;28;20884;-64
2022/05/10 06:53:32;;;;;;;7.17;6.47;;;19.10;99.90;;;;;;5034608;28;20244;-62
2022/05/10 06:55:58;;;;;;;6.40;5.87;;;19.20;99.90;;;;;;5034892;28;20409;-63
2022/05/10 06:58:24;;;;;;;6.70;6.10;;;19.30;99.90;;;;;;5034899;28;20559;-62
2022/05/10 07:00:50;;;;;;;7.77;7.00;;;19.60;99.90;;;;;;5035070;28;20375;-64
2022/05/10 07:03:17;;;;;;;7.90;7.13;;;19.80;99.90;;;;;;5034618;28;20201;-63
2022/05/10 07:05:46;;;;;;;9.20;6.97;;;19.80;99.90;;;;;;5034616;28;20594;-64
2022/05/10 07:08:12;;;;;;;8.83;6.33;;;19.90;99.90;;;;;;5033416;28;20765;-64
2022/05/10 07:10:38;;;;;;;7.47;6.60;;;20.10;99.90;;;;;;5034540;28;20755;-63
2022/05/10 07:13:03;;;;;;;6.67;6.07;;;20.30;99.90;;;;;;5034203;28;20398;-62
2022/05/10 07:15:30;;;;;;;7.97;7.20;;;20.50;99.90;;;;;;5034554;28;20189;-62
2022/05/10 07:17:56;;;;;;;6.10;5.50;;;20.60;99.90;;;;;;5034693;28;20170;-64
2022/05/10 07:20:22;;;;;;;7.87;6.60;;;20.80;99.90;;;;;;5034800;28;20412;-64
2022/05/10 07:22:48;;;;;;;6.43;5.90;;;21.10;99.90;;;;;;5032735;28;20536;-63
2022/05/10 07:25:16;;;;;;;6.73;6.07;;;21.20;99.90;;;;;;5034462;28;20423;-63
2022/05/10 07:27:42;;;;;;;7.37;6.70;;;21.30;99.90;;;;;;5034369;28;20440;-64
2022/05/10 07:30:10;;;;;;;6.20;5.60;;;21.40;99.90;;;;;;5034463;28;20811;-62
2022/05/10 07:32:36;;;;;;;6.20;5.60;;;21.60;99.90;;;;;;5034035;28;20933;-63
2022/05/10 07:35:03;;;;;;;7.43;6.73;;;21.90;99.90;;;;;;5034259;28;20397;-64
2022/05/10 07:37:30;;;;;;;5.87;5.27;;;22.50;99.30;;;;;;5016463;28;20710;-63
2022/05/10 07:39:55;;;;;;;7.27;6.67;;;23.00;98.60;;;;;;5034099;28;20384;-64
2022/05/10 07:42:21;;;;;;;6.13;5.63;;;23.70;97.60;;;;;;5033682;28;20391;-63
2022/05/10 07:44:49;;;;;;;6.50;5.90;;;24.70;95.90;;;;;;5033938;28;20208;-64
2022/05/10 07:47:14;;;;;;;6.20;5.70;;;25.60;94.50;;;;;;5033891;28;20165;-65
2022/05/10 07:49:40;;;;;;;5.50;5.03;;;26.50;93.20;;;;;;5033758;28;20387;-64
2022/05/10 07:52:06;;;;;;;6.30;5.80;;;27.40;91.90;;;;;;5033603;28;20220;-65
2022/05/10 07:54:32;;;;;;;7.60;6.93;;;28.50;89.60;;;;;;5032972;28;20221;-66
2022/05/10 07:56:57;;;;;;;5.70;5.30;;;29.20;85.30;;;;;;5031914;28;20892;-66
2022/05/10 07:59:23;;;;;;;5.43;5.03;;;29.50;83.30;;;;;;5032026;28;20253;-62
2022/05/10 08:01:48;;;;;;;6.53;4.60;;;30.20;79.20;;;;;;5031833;28;20639;-63
2022/05/10 08:04:14;;;;;;;4.90;4.60;;;31.10;76.30;;;;;;5031426;28;20190;-63
2022/05/10 08:06:40;;;;;;;5.63;5.23;;;31.90;72.00;;;;;;5032548;28;20210;-63
2022/05/10 08:09:05;;;;;;;6.07;5.57;;;32.50;68.00;;;;;;5033507;28;20632;-62
2022/05/10 08:11:31;;;;;;;6.00;5.60;;;33.00;65.20;;;;;;5033663;28;20173;-62
2022/05/10 08:13:56;;;;;;;6.40;5.90;;;33.40;64.20;;;;;;5033234;28;20276;-63
2022/05/10 08:16:22;;;;;;;6.10;5.70;;;33.80;62.60;;;;;;5033590;28;20197;-63
2022/05/10 08:18:49;;;;;;;6.40;5.80;;;34.20;61.40;;;;;;5033766;28;20173;-62
2022/05/10 08:21:15;;;;;;;7.17;6.47;;;34.40;61.50;;;;;;5033469;28;20170;-64
2022/05/10 08:23:41;;;;;;;5.73;5.33;;;34.90;60.00;;;;;;5032956;28;20433;-62
2022/05/10 08:26:08;;;;;;;5.10;4.80;;;35.50;58.60;;;;;;5033320;28;20495;-62
2022/05/10 08:28:35;;;;;;;6.97;6.37;;;35.90;57.20;;;;;;5033459;28;20201;-63
2022/05/10 08:31:03;;;;;;;5.80;5.40;;;35.90;56.30;;;;;;5033487;28;20432;-62
2022/05/10 08:33:32;;;;;;;5.80;5.40;;;35.80;56.40;;;;;;5032862;28;20448;-64
2022/05/10 08:35:58;;;;;;;7.37;5.20;;;36.00;56.50;;;;;;5024333;28;20453;-63
2022/05/10 08:38:27;;;;;;;6.20;5.70;;;36.30;55.30;;;;;;5033437;28;20933;-63
2022/05/10 08:40:59;;;;;;;5.77;5.37;;;36.60;54.20;;;;;;5033110;28;20416;-62
2022/05/10 08:43:51;;;;;;;5.60;5.23;;;36.70;52.70;;;;;;5015208;28;20764;-62
2022/05/10 08:46:26;;;;;;;5.40;5.00;;;36.90;53.00;;;;;;5022281;28;20475;-63
2022/05/10 08:48:59;;;;;;;5.40;5.10;;;37.00;52.90;;;;;;5033185;28;20392;-62
2022/05/10 08:51:25;;;;;;;5.67;5.17;;;37.20;51.80;;;;;;5033337;28;20405;-63
2022/05/10 08:53:51;;;;;;;6.50;5.50;;;37.30;51.50;;;;;;5032722;28;20520;-62
2022/05/10 08:56:24;;;;;;;5.60;5.20;;;37.60;51.00;;;;;;5033252;28;20506;-63
2022/05/10 08:59:10;;;;;;;5.13;4.77;;;37.40;51.20;;;;;;5033126;28;20168;-63
2022/05/10 09:01:49;;;;;;;5.00;4.70;;;37.40;52.10;;;;;;5018735;28;20424;-63
2022/05/10 09:04:34;;;;;;;5.50;5.20;;;37.60;50.40;;;;;;5032641;28;20787;-62
2022/05/10 09:07:20;;;;;;;5.20;4.90;;;37.70;50.30;;;;;;5035724;28;20456;-62
2022/05/10 09:10:02;;;;;;;6.67;6.20;;;38.20;48.70;;;;;;5037037;28;20451;-63
2022/05/10 09:12:29;;;;;;;6.27;5.77;;;38.30;49.40;;;;;;5036541;28;20479;-62
2022/05/10 09:15:02;;;;;;;5.30;5.00;;;38.60;48.80;;;;;;5036643;28;20424;-62
2022/05/10 09:17:32;;;;;;;6.30;5.90;;;39.00;48.20;;;;;;5036645;28;20476;-63
2022/05/10 09:19:58;;;;;;;6.30;5.90;;;39.40;48.60;;;;;;5036584;28;20456;-62
2022/05/10 09:22:42;;;;;;;5.60;5.30;;;39.30;47.50;;;;;;5036178;28;20454;-63
2022/05/10 09:25:34;;;;;;;5.47;5.17;;;38.40;47.10;;;;;;5036323;28;20853;-62
2022/05/10 09:28:19;;;;;;;4.97;4.67;;;38.00;48.00;;;;;;5036755;28;20425;-62
2022/05/10 09:34:45;;;;;;;5.40;5.10;;;38.10;47.40;;;;;;5018818;28;20439;-62
2022/05/10 09:36:25;;;;;;;4.80;4.50;;;38.20;47.10;;;;;;5022948;28;20421;-62
2022/05/10 09:39:25;;;;;;;5.13;4.83;;;38.20;47.00;;;;;;5016562;28;20447;-63
2022/05/10 09:41:54;;;;;;;4.73;4.43;;;38.30;46.50;;;;;;5014424;28;20417;-62
2022/05/10 09:44:20;;;;;;;5.13;4.83;;;38.50;46.40;;;;;;5015897;28;20440;-62
2022/05/10 09:46:46;;;;;;;5.00;4.70;;;38.20;43.90;;;;;;5016215;28;20450;-62
2022/05/10 09:49:31;;;;;;;5.20;4.90;;;37.80;45.20;;;;;;5016535;28;20410;-62
2022/05/10 09:51:58;;;;;;;5.60;5.20;;;37.70;46.50;;;;;;5016374;28;20166;-62
2022/05/10 09:54:38;;;;;;;5.17;4.87;;;37.80;46.40;;;;;;5016004;28;20487;-63
2022/05/10 09:57:06;;;;;;;4.60;4.40;;;38.00;45.20;;;;;;5016316;28;20444;-63
2022/05/10 09:59:46;;;;;;;5.37;5.07;;;38.60;43.80;;;;;;5016372;28;20449;-63
2022/05/10 10:02:43;;;;;;;5.97;5.57;;;38.80;42.70;;;;;;5015946;28;20464;-63
2022/05/10 10:05:18;;;;;;;4.93;4.63;;;38.60;42.80;;;;;;5012660;28;21030;-62
2022/05/10 10:07:53;;;;;;;4.30;4.07;;;38.60;42.40;;;;;;5015950;28;20397;-62
2022/05/10 10:10:39;;;;;;;5.70;5.40;;;39.00;43.10;;;;;;5016020;28;20398;-62
2022/05/10 10:13:25;;;;;;;5.50;5.10;;;39.10;43.30;;;;;;5015245;28;20414;-61
2022/05/10 10:15:51;;;;;;;5.83;5.43;;;38.90;44.40;;;;;;5016177;28;20398;-63
2022/05/10 10:18:41;;;;;;;5.00;4.70;;;38.20;43.10;;;;;;5014532;28;20966;-62
2022/05/10 10:21:11;;;;;;;5.33;4.97;;;37.60;43.10;;;;;;5016020;28;20214;-62
2022/05/10 10:23:48;;;;;;;4.73;4.40;;;37.30;43.50;;;;;;5015527;28;20448;-62
2022/05/10 10:26:19;;;;;;;4.80;4.50;;;37.30;43.60;;;;;;5015871;28;20449;-62
2022/05/10 10:29:31;;;;;;;4.67;4.37;;;37.50;43.80;;;;;;5015632;28;20416;-61
2022/05/10 10:32:06;;;;;;;5.40;5.00;;;37.40;43.80;;;;;;4988861;28;20779;-62
2022/05/10 10:34:58;;;;;;;4.40;4.10;;;36.90;43.90;;;;;;5015434;28;20860;-65
2022/05/10 10:37:41;;;;;;;5.00;4.60;;;36.50;45.10;;;;;;5010832;28;20421;-63
2022/05/10 10:40:22;;;;;;;4.87;4.57;;;36.10;44.90;;;;;;5015548;28;20783;-63
2022/05/10 10:42:53;;;;;;;4.63;4.33;;;35.50;44.90;;;;;;5015262;28;20497;-63
2022/05/10 10:45:34;;;;;;;4.50;4.20;;;35.10;45.90;;;;;;5015287;28;20456;-62
2022/05/10 10:48:38;;;;;;;3.93;3.63;;;34.60;45.50;;;;;;5015823;28;20750;-62
2022/05/10 10:51:03;;;;;;;5.13;4.83;;;34.80;45.40;;;;;;5015408;28;20756;-62
2022/05/10 10:53:34;;;;;;;4.47;4.07;;;34.60;45.70;;;;;;5015003;28;20418;-61
2022/05/10 10:56:29;;;;;;;4.67;4.27;;;34.30;45.30;;;;;;4997371;28;20229;-61
2022/05/10 10:59:25;;;;;;;4.00;3.70;;;34.40;47.30;;;;;;5014996;28;20410;-63
2022/05/10 11:02:11;;;;;;;4.37;4.07;;;34.10;45.20;;;;;;5014949;28;20406;-62
2022/05/10 11:04:55;;;;;;;4.70;4.30;;;33.70;45.50;;;;;;5014503;28;20432;-61
2022/05/10 11:07:31;;;;;;;4.07;3.77;;;33.30;46.10;;;;;;5015056;28;20447;-61
2022/05/10 11:10:22;;;;;;;7.60;6.90;;;33.10;46.20;;;;;;5014892;28;20456;-60
2022/05/10 11:13:23;;;;;;;4.03;3.73;;;32.60;47.40;;;;;;4996846;28;20396;-63
2022/05/10 11:16:20;;;;;;;3.93;3.63;;;32.00;47.70;;;;;;5014817;28;20467;-61
2022/05/10 11:19:04;;;;;;;3.30;3.10;;;31.50;47.20;;;;;;5015147;28;20398;-60
2022/05/10 11:21:29;;;;;;;5.20;4.80;;;30.90;47.80;;;;;;5014643;28;20679;-61
2022/05/10 11:24:04;;;;;;;3.50;3.30;;;30.10;50.00;;;;;;5014161;28;20536;-61
2022/05/10 11:26:33;;;;;;;3.67;3.40;;;29.70;51.00;;;;;;5014691;28;20711;-64
2022/05/10 11:29:21;;;;;;;3.50;3.20;;;29.40;50.40;;;;;;5014103;28;20396;-61
2022/05/10 11:32:10;;;;;;;6.43;3.80;;;29.00;49.10;;;;;;5014497;28;20398;-61
2022/05/10 11:35:03;;;;;;;3.63;3.33;;;28.60;50.50;;;;;;5014382;28;20396;-62
2022/05/10 11:37:39;;;;;;;4.30;3.93;;;28.50;50.60;;;;;;5014455;28;20409;-61
2022/05/10 11:40:28;;;;;;;4.60;4.20;;;28.40;50.40;;;;;;5014512;28;20407;-61
2022/05/10 11:43:12;;;;;;;3.63;3.33;;;28.20;51.90;;;;;;5014140;28;20372;-61
2022/05/10 11:45:58;;;;;;;3.60;3.30;;;28.10;53.60;;;;;;5014045;28;20445;-61
2022/05/10 11:49:01;;;;;;;4.13;3.83;;;28.10;52.80;;;;;;5014311;28;20406;-60
2022/05/10 11:51:48;;;;;;;3.50;3.30;;;28.00;51.10;;;;;;5033608;28;20383;-62
2022/05/10 11:54:36;;;;;;;3.60;3.30;;;27.90;51.60;;;;;;5033479;28;20420;-62
2022/05/10 11:57:03;;;;;;;3.73;3.43;;;27.90;51.00;;;;;;5033529;28;20395;-61
2022/05/10 11:59:32;;;;;;;3.80;3.50;;;27.90;50.80;;;;;;5033457;28;20387;-62
2022/05/10 12:01:59;;;;;;;3.20;3.00;;;27.90;50.90;;;;;;5033552;28;20388;-63
2022/05/10 12:04:45;;;;;;;3.53;3.23;;;27.90;52.00;;;;;;5033176;28;20431;-62
2022/05/10 12:07:19;;;;;;;3.07;2.87;;;27.90;51.10;;;;;;5033716;28;20549;-64
2022/05/10 12:09:56;;;;;;;4.27;3.83;;;27.90;51.50;;;;;;5033804;28;20487;-62
2022/05/10 12:12:31;;;;;;;3.70;3.50;;;27.90;51.60;;;;;;5015393;28;20881;-61
2022/05/10 12:21:19;;;;;;;4.13;3.40;;;28.00;53.40;;;;;;5033549;28;20482;-62
2022/05/10 12:24:11;;;;;;;3.70;3.40;;;27.90;52.10;;;;;;5032882;28;20428;-61
2022/05/10 12:26:46;;;;;;;3.50;3.20;;;27.70;52.90;;;;;;5033419;28;20427;-61
2022/05/10 12:29:38;;;;;;;5.23;4.33;;;27.70;54.50;;;;;;5033241;28;20473;-63
2022/05/10 12:32:10;;;;;;;8.50;5.73;;;27.80;55.20;;;;;;5033364;28;20523;-68
2022/05/10 12:34:39;;;;;;;4.40;4.10;;;27.90;54.60;;;;;;5033125;28;20429;-61
2022/05/10 12:37:28;;;;;;;3.63;3.33;;;27.90;54.60;;;;;;5012681;28;20476;-61
2022/05/10 12:40:11;;;;;;;4.30;4.00;;;28.00;52.50;;;;;;4965269;28;20425;-61
2022/05/10 12:42:49;;;;;;;3.70;3.40;;;28.00;52.10;;;;;;5012753;28;20720;-61
2022/05/10 12:45:55;;;;;;;4.10;3.80;;;28.00;52.60;;;;;;5012083;28;20778;-61
2022/05/10 12:48:43;;;;;;;3.47;3.17;;;28.00;53.20;;;;;;5013442;28;20372;-61
2022/05/10 12:51:32;;;;;;;3.57;3.27;;;28.00;53.20;;;;;;5013371;28;20405;-61
2022/05/10 12:54:09;;;;;;;4.33;4.03;;;27.90;52.20;;;;;;5012795;28;20454;-61
2022/05/10 12:56:40;;;;;;;4.07;3.50;;;27.90;52.40;;;;;;4995687;28;20391;-61
2022/05/10 12:59:09;;;;;;;3.70;3.40;;;27.90;53.00;;;;;;5013361;28;20417;-61
2022/05/10 13:01:37;;;;;;;3.23;3.03;;;28.00;52.20;;;;;;5013475;28;20760;-61
2022/05/10 13:04:20;;;;;;;3.40;3.20;;;28.10;51.30;;;;;;5012984;28;20977;-63
2022/05/10 13:06:58;;;;;;;4.00;3.50;;;28.20;51.80;;;;;;5013343;28;20471;-61
2022/05/10 13:09:29;;;;;;;3.40;3.20;;;28.40;51.70;;;;;;5012006;28;20442;-61
2022/05/10 13:12:19;;;;;;;4.00;3.70;;;28.50;52.00;;;;;;5013335;28;20379;-62
2022/05/10 13:14:48;;;;;;;3.50;3.20;;;28.40;52.70;;;;;;5013140;28;20397;-62
2022/05/10 13:17:24;;;;;;;4.50;4.10;;;28.40;52.40;;;;;;5013108;28;20790;-62
2022/05/10 13:19:50;;;;;;;3.37;3.07;;;28.30;52.10;;;;;;5013255;28;20388;-62
2022/05/10 13:22:18;;;;;;;3.67;3.37;;;28.30;51.70;;;;;;5012809;28;20399;-62
2022/05/10 13:24:47;;;;;;;3.57;3.27;;;28.30;52.30;;;;;;5013271;28;20462;-62
2022/05/10 13:27:27;;;;;;;3.13;2.93;;;28.40;54.00;;;;;;5013077;28;20937;-62
2022/05/10 13:29:55;;;;;;;3.20;3.00;;;28.50;54.50;;;;;;5012873;28;20376;-63
2022/05/10 13:32:36;;;;;;;4.37;4.07;;;28.60;53.80;;;;;;5012294;28;20391;-62
2022/05/10 13:35:13;;;;;;;3.70;3.40;;;28.60;52.40;;;;;;5016081;28;20514;-62
2022/05/10 13:37:42;;;;;;;4.03;3.20;;;28.60;51.80;;;;;;5032802;28;20418;-62
2022/05/10 13:40:29;;;;;;;3.40;3.17;;;28.50;51.40;;;;;;5032599;28;20383;-62
2022/05/10 13:43:05;;;;;;;3.90;3.50;;;28.50;52.00;;;;;;5030913;28;20409;-62
2022/05/10 13:45:31;;;;;;;3.30;3.10;;;28.60;52.60;;;;;;5032534;28;20785;-62
2022/05/10 13:48:04;;;;;;;3.87;3.47;;;28.40;51.50;;;;;;5032572;28;20475;-61
2022/05/10 13:50:30;;;;;;;3.43;3.17;;;28.50;52.30;;;;;;5032586;28;20383;-62
2022/05/10 13:53:03;;;;;;;7.30;3.97;;;28.40;52.90;;;;;;5034699;28;20395;-63
2022/05/10 13:55:30;;;;;;;3.10;2.90;;;28.40;53.10;;;;;;5036054;28;20409;-63
2022/05/10 13:58:02;;;;;;;3.33;3.13;;;28.30;52.10;;;;;;5036225;28;20387;-63
2022/05/10 14:00:40;;;;;;;6.03;3.40;;;28.30;52.10;;;;;;5035967;28;20500;-61
2022/05/10 14:03:10;;;;;;;5.63;2.93;;;28.30;52.20;;;;;;5034170;28;20395;-63
2022/05/10 14:05:37;;;;;;;3.40;3.10;;;28.30;52.10;;;;;;5035574;28;20458;-62
2022/05/10 14:08:13;;;;;;;3.30;3.10;;;28.30;52.30;;;;;;5035938;28;20387;-62
2022/05/10 14:10:40;;;;;;;3.27;2.77;;;28.30;53.40;;;;;;5035891;28;20409;-62
2022/05/10 14:13:10;;;;;;;3.90;3.60;;;28.40;52.70;;;;;;5035439;28;20380;-62
2022/05/10 14:15:39;;;;;;;3.53;3.30;;;28.40;51.60;;;;;;5034435;28;20758;-62
2022/05/10 14:18:15;;;;;;;3.77;3.10;;;28.30;52.20;;;;;;5035761;28;20415;-62
2022/05/10 14:20:47;;;;;;;3.20;3.00;;;28.20;53.30;;;;;;5035734;28;20503;-63
2022/05/10 14:23:16;;;;;;;3.70;3.40;;;28.10;54.00;;;;;;5035239;28;20905;-61
2022/05/10 14:25:54;;;;;;;3.40;3.20;;;28.20;54.70;;;;;;5035403;28;20436;-62
2022/05/10 14:28:31;;;;;;;3.47;3.20;;;28.10;52.70;;;;;;5035587;28;20394;-62
2022/05/10 14:31:14;;;;;;;3.90;3.60;;;28.10;53.80;;;;;;5035534;28;20391;-63
2022/05/10 14:33:43;;;;;;;5.70;3.50;;;28.00;55.90;;;;;;5034955;28;20437;-62
2022/05/10 14:36:28;;;;;;;3.70;3.40;;;28.00;53.90;;;;;;5024989;28;20453;-63
2022/05/10 14:38:56;;;;;;;3.33;3.13;;;28.00;53.80;;;;;;5017715;28;20376;-63
2022/05/10 14:41:28;;;;;;;4.20;3.70;;;28.00;53.20;;;;;;5035107;28;20509;-62
2022/05/10 14:43:54;;;;;;;3.60;3.30;;;27.90;53.20;;;;;;5017041;28;20739;-62
2022/05/10 14:46:33;;;;;;;3.50;3.20;;;27.80;53.60;;;;;;5035053;28;20439;-62
2022/05/10 14:49:00;;;;;;;3.50;3.20;;;27.80;54.50;;;;;;5034791;28;20226;-62
2022/05/10 14:51:34;;;;;;;4.70;3.37;;;27.70;54.20;;;;;;5035204;28;20385;-63
2022/05/10 14:54:00;;;;;;;4.03;3.73;;;27.70;54.60;;;;;;5034704;28;20423;-62
2022/05/10 14:56:37;;;;;;;4.03;3.73;;;27.70;55.00;;;;;;5034981;28;20422;-61
2022/05/10 14:59:10;;;;;;;3.50;3.27;;;27.60;54.50;;;;;;5035275;28;20179;-62
2022/05/10 15:01:37;;;;;;;4.03;3.73;;;27.50;54.10;;;;;;5034786;28;20527;-62
2022/05/10 15:04:18;;;;;;;3.97;3.67;;;27.60;54.70;;;;;;5033651;28;20773;-62
2022/05/10 15:06:45;;;;;;;3.17;2.97;;;27.70;55.80;;;;;;5034577;28;20504;-61
2022/05/10 15:09:12;;;;;;;3.20;3.00;;;27.70;55.30;;;;;;5034827;28;20412;-62
2022/05/10 15:13:03;;;;;;;4.10;3.80;;;27.80;55.30;;;;;;5034773;28;20387;-63
2022/05/10 15:14:25;;;;;;;4.77;4.40;;;27.90;55.70;;;;;;5033970;28;20482;-63
2022/05/10 15:16:50;;;;;;;4.07;3.77;;;27.90;55.10;;;;;;5034651;28;20398;-62
2022/05/10 15:19:17;;;;;;;4.27;3.97;;;27.90;56.00;;;;;;5034476;28;20767;-62
2022/05/10 15:21:43;;;;;;;4.20;3.90;;;27.90;56.20;;;;;;5034662;28;20406;-62
2022/05/10 15:24:09;;;;;;;4.00;3.70;;;27.90;56.00;;;;;;5034066;28;20410;-62
2022/05/10 15:26:40;;;;;;;4.10;3.80;;;27.90;55.10;;;;;;5034331;28;20526;-62
2022/05/10 15:29:10;;;;;;;4.87;3.47;;;27.90;56.10;;;;;;5034412;28;20409;-62
2022/05/10 15:31:36;;;;;;;5.43;4.17;;;27.90;56.10;;;;;;5034167;28;20446;-62
2022/05/10 15:34:42;;;;;;;4.13;3.83;;;27.80;55.60;;;;;;5033774;28;20463;-63
2022/05/10 15:36:47;;;;;;;3.77;3.47;;;27.80;55.40;;;;;;5016274;28;20273;-62
2022/05/10 15:39:13;;;;;;;4.63;4.23;;;27.70;55.30;;;;;;5014222;28;20416;-64
2022/05/10 15:41:39;;;;;;;4.03;3.73;;;27.60;55.20;;;;;;5014075;28;20390;-62
2022/05/10 15:44:04;;;;;;;4.63;4.23;;;27.50;56.50;;;;;;5013701;28;20690;-62
2022/05/10 15:46:30;;;;;;;4.63;4.23;;;27.50;56.70;;;;;;5014223;28;20227;-62
2022/05/10 15:48:57;;;;;;;4.40;4.10;;;27.40;57.70;;;;;;5014185;28;20643;-61
2022/05/10 15:51:25;;;;;;;4.27;3.90;;;27.30;57.20;;;;;;5014035;28;20203;-63
2022/05/10 15:53:51;;;;;;;4.20;3.83;;;27.10;58.10;;;;;;5013682;28;20766;-63
2022/05/10 15:56:17;;;;;;;4.20;3.90;;;27.10;58.70;;;;;;5014023;28;20442;-62
2022/05/10 15:58:43;;;;;;;5.73;4.13;;;27.10;59.80;;;;;;5014148;28;20229;-62
2022/05/10 16:01:08;;;;;;;4.80;4.43;;;27.10;59.20;;;;;;5013725;28;20407;-62
2022/05/10 16:03:34;;;;;;;3.73;3.43;;;27.00;59.20;;;;;;5013441;28;20197;-62
2022/05/10 16:06:00;;;;;;;5.07;4.67;;;26.80;59.20;;;;;;5013607;28;20320;-62
2022/05/10 16:08:26;;;;;;;4.33;4.00;;;26.70;59.90;;;;;;5014090;28;20457;-63
2022/05/10 16:10:52;;;;;;;4.80;4.40;;;26.50;60.20;;;;;;5013908;28;20380;-62
2022/05/10 16:13:19;;;;;;;4.10;3.80;;;26.40;60.00;;;;;;5013288;28;20195;-62
2022/05/10 16:15:44;;;;;;;5.60;4.67;;;26.40;60.20;;;;;;5013838;28;20463;-62
2022/05/10 16:18:19;;;;;;;4.57;4.17;;;26.30;62.20;;;;;;5013560;28;20509;-63
2022/05/10 16:20:47;;;;;;;4.57;4.27;;;26.30;61.30;;;;;;4995965;28;20182;-63
2022/05/10 16:23:13;;;;;;;4.67;4.37;;;26.20;61.30;;;;;;5013394;28;20434;-62
2022/05/10 16:25:39;;;;;;;4.20;3.80;;;26.10;61.50;;;;;;5013691;28;20651;-60
2022/05/10 16:30:49;;;;;;;3.70;3.40;;;26.00;62.90;;;;;;5032102;28;20181;-63
2022/05/10 16:33:15;;;;;;;5.50;4.57;;;25.90;62.80;;;;;;5052523;28;20436;-63
2022/05/10 16:35:41;;;;;;;4.17;3.83;;;25.80;63.10;;;;;;5035313;28;20182;-64
2022/05/10 16:38:07;;;;;;;5.07;4.57;;;25.70;63.10;;;;;;5033159;28;20225;-65
2022/05/10 16:40:33;;;;;;;4.00;3.70;;;25.60;63.50;;;;;;5032940;28;20672;-66
2022/05/10 16:42:59;;;;;;;4.60;4.27;;;25.60;63.70;;;;;;5032366;28;20425;-63
2022/05/10 16:45:26;;;;;;;4.27;3.87;;;25.60;65.00;;;;;;5046682;28;20505;-64
2022/05/10 16:47:52;;;;;;;5.13;4.70;;;25.50;65.60;;;;;;5050867;28;20177;-63
2022/05/10 16:50:18;;;;;;;4.73;4.33;;;25.50;65.20;;;;;;5030718;28;20395;-63
2022/05/10 16:52:46;;;;;;;4.33;3.93;;;25.50;65.40;;;;;;5032327;28;20174;-61
2022/05/10 16:55:14;;;;;;;4.53;4.13;;;25.40;65.90;;;;;;5032777;28;20456;-64
2022/05/10 16:57:40;;;;;;;5.77;5.37;;;25.30;66.10;;;;;;5032820;28;20993;-61
2022/05/10 17:00:12;;;;;;;6.87;6.27;;;25.30;66.60;;;;;;5032844;28;20516;-62
2022/05/10 17:02:42;;;;;;;5.07;4.57;;;25.20;67.00;;;;;;5032565;28;20189;-62
2022/05/10 17:05:10;;;;;;;5.03;4.47;;;25.20;67.60;;;;;;5032663;28;20440;-62
2022/05/10 17:07:42;;;;;;;4.33;3.93;;;25.20;68.70;;;;;;5032523;28;20427;-63
2022/05/10 17:10:12;;;;;;;5.00;4.60;;;25.00;68.60;;;;;;5033460;28;20801;-65
2022/05/10 17:12:38;;;;;;;4.43;4.03;;;24.90;68.30;;;;;;5032341;28;20810;-62
2022/05/10 17:15:04;;;;;;;5.10;4.60;;;24.90;68.40;;;;;;5032536;28;20440;-62
2022/05/10 17:17:30;;;;;;;4.37;4.07;;;24.80;68.50;;;;;;5032381;28;20479;-62
2022/05/10 17:19:56;;;;;;;4.63;4.17;;;24.80;68.90;;;;;;5015071;28;20425;-61
2022/05/10 17:22:21;;;;;;;5.40;4.90;;;24.80;68.90;;;;;;5032029;28;20206;-62
2022/05/10 17:24:47;;;;;;;3.77;3.47;;;24.80;69.10;;;;;;5032862;28;20186;-62
2022/05/10 17:27:24;;;;;;;4.90;4.23;;;24.80;68.80;;;;;;5033686;28;20186;-61
2022/05/10 17:29:53;;;;;;;4.90;4.10;;;24.80;68.70;;;;;;5036462;28;20559;-61